Time;durP1;ratioP1;P1;durP2;ratioP2;P2;SDS_P1;SDS_P2;PMS_P1;PMS_P2;Temp;Humidity;BMP_temperature;BMP_pressure;BME280_temperature;BME280_humidity;BME280_pressure;Samples;Min_cycle;Max_cycle;Signal;HPM_P1;HPM_P2
2023/12/11 00:01:34;;;;;;;45.10;5.70;;;;;;;;;;4888683;29;20090;-92
2023/12/11 00:04:03;;;;;;;57.83;6.25;;;;;;;;;;4892639;29;20146;-88
2023/12/11 00:06:32;;;;;;;58.50;6.38;;;;;;;;;;4887902;29;20064;-91
2023/12/11 00:08:58;;;;;;;64.78;7.20;;;;;;;;;;4912360;29;20255;-92
2023/12/11 00:11:30;;;;;;;64.45;6.10;;;;;;;;;;4893790;29;20093;-92
2023/12/11 00:13:56;;;;;;;50.40;5.75;;;;;;;;;;4895668;29;20051;-90
2023/12/11 00:16:47;;;;;;;55.22;6.10;;;;;;;;;;4895107;29;20569;-90
2023/12/11 00:19:22;;;;;;;68.88;7.55;;;;;;;;;;4911657;29;20044;-88
2023/12/11 00:21:48;;;;;;;60.95;5.88;;;;;;;;;;4882857;29;20778;-91
2023/12/11 00:24:17;;;;;;;58.47;8.10;;;;;;;;;;4884687;29;20079;-87
2023/12/11 00:26:49;;;;;;;64.47;8.05;;;;;;;;;;4902812;29;20052;-89
2023/12/11 00:29:15;;;;;;;60.15;6.40;;;;;;;;;;4883784;29;20091;-88
2023/12/11 00:31:44;;;;;;;53.22;7.80;;;;;;;;;;4884206;29;20052;-93
2023/12/11 00:34:13;;;;;;;73.68;9.27;;;;;;;;;;4889950;29;20048;-89
2023/12/11 00:36:44;;;;;;;71.15;6.35;;;;;;;;;;4902738;29;20385;-92
2023/12/11 00:39:26;;;;;;;64.68;9.88;;;;;;;;;;4899683;29;20738;-93
2023/12/11 00:41:52;;;;;;;65.63;7.78;;;;;;;;;;4892857;29;20101;-91
2023/12/11 00:44:21;;;;;;;82.38;9.30;;;;;;;;;;4893090;29;20052;-91
2023/12/11 00:46:53;;;;;;;53.58;6.15;;;;;;;;;;4919771;29;20052;-90
2023/12/11 00:49:26;;;;;;;68.25;6.32;;;;;;;;;;4891626;29;20087;-91
2023/12/11 00:51:59;;;;;;;67.25;5.93;;;;;;;;;;4893467;29;20047;-92
2023/12/11 00:54:34;;;;;;;63.85;9.93;;;;;;;;;;4897120;29;20075;-90
2023/12/11 00:57:12;;;;;;;62.83;5.90;;;;;;;;;;4885920;29;20052;-90
2023/12/11 00:59:47;;;;;;;64.07;8.43;;;;;;;;;;4894185;29;20071;-94
2023/12/11 01:02:25;;;;;;;57.95;7.43;;;;;;;;;;4885087;29;20051;-91
2023/12/11 01:04:57;;;;;;;67.90;8.15;;;;;;;;;;4886202;29;20052;-94
2023/12/11 01:07:23;;;;;;;71.78;9.07;;;;;;;;;;4902149;29;20055;-92
2023/12/11 01:09:59;;;;;;;74.85;7.40;;;;;;;;;;4894964;29;20045;-92
2023/12/11 01:12:25;;;;;;;71.43;9.00;;;;;;;;;;4874402;29;20052;-93
2023/12/11 01:14:54;;;;;;;57.00;6.68;;;;;;;;;;4892580;29;20053;-89
2023/12/11 01:17:32;;;;;;;49.30;5.63;;;;;;;;;;4869467;29;20064;-92
2023/12/11 01:20:04;;;;;;;75.28;10.25;;;;;;;;;;4881417;29;20048;-92
2023/12/11 01:22:44;;;;;;;73.55;7.45;;;;;;;;;;4868890;29;20060;-90
2023/12/11 01:25:13;;;;;;;74.82;7.63;;;;;;;;;;4877382;29;21114;-92
2023/12/11 01:27:40;;;;;;;58.17;8.05;;;;;;;;;;4887754;29;20057;-89
2023/12/11 01:30:23;;;;;;;68.00;8.57;;;;;;;;;;4860727;29;20084;-91
2023/12/11 01:32:50;;;;;;;59.67;7.05;;;;;;;;;;4874358;29;20140;-90
2023/12/11 01:35:16;;;;;;;64.60;6.53;;;;;;;;;;4898147;29;20056;-90
2023/12/11 01:37:52;;;;;;;63.08;7.90;;;;;;;;;;4878572;29;20163;-91
2023/12/11 01:40:18;;;;;;;69.97;7.35;;;;;;;;;;4878403;29;20049;-90
2023/12/11 01:42:47;;;;;;;55.90;5.97;;;;;;;;;;4858498;29;20049;-87
2023/12/11 01:45:22;;;;;;;55.45;7.20;;;;;;;;;;4865249;29;20045;-90
2023/12/11 01:47:49;;;;;;;65.15;6.50;;;;;;;;;;4894906;29;20048;-91
2023/12/11 01:50:28;;;;;;;65.47;6.97;;;;;;;;;;4906449;29;20127;-91
2023/12/11 01:52:57;;;;;;;59.33;7.65;;;;;;;;;;4898736;29;20044;-94
2023/12/11 01:55:26;;;;;;;63.00;5.53;;;;;;;;;;4900208;29;20055;-92
2023/12/11 01:58:03;;;;;;;56.45;8.27;;;;;;;;;;4914511;29;20493;-90
2023/12/11 02:00:33;;;;;;;71.68;12.35;;;;;;;;;;4916846;29;20054;-90
2023/12/11 02:03:02;;;;;;;70.22;10.98;;;;;;;;;;4888194;29;20058;-90
2023/12/11 02:05:32;;;;;;;71.00;7.63;;;;;;;;;;4894591;29;20107;-89
2023/12/11 02:08:04;;;;;;;63.75;6.93;;;;;;;;;;4900254;29;20103;-89
2023/12/11 02:10:33;;;;;;;60.75;8.85;;;;;;;;;;4906968;29;20044;-92
2023/12/11 02:13:04;;;;;;;67.63;8.15;;;;;;;;;;4899760;29;20124;-93
2023/12/11 02:15:40;;;;;;;84.25;10.00;;;;;;;;;;4905988;29;20059;-90
2023/12/11 02:18:10;;;;;;;63.40;6.78;;;;;;;;;;4905821;29;20060;-90
2023/12/11 02:20:45;;;;;;;68.82;8.38;;;;;;;;;;4906217;29;20301;-90
2023/12/11 02:23:27;;;;;;;78.15;8.70;;;;;;;;;;4897987;29;20062;-90
2023/12/11 02:25:58;;;;;;;69.43;8.18;;;;;;;;;;4890334;29;20087;-90
2023/12/11 02:28:30;;;;;;;70.55;8.88;;;;;;;;;;4872899;29;20048;-95
2023/12/11 02:30:59;;;;;;;74.07;7.80;;;;;;;;;;4903069;29;20121;-92
2023/12/11 02:33:25;;;;;;;63.35;8.40;;;;;;;;;;4895757;29;20052;-90
2023/12/11 02:35:51;;;;;;;88.63;8.85;;;;;;;;;;4889212;29;20052;-88
2023/12/11 02:38:23;;;;;;;65.40;7.25;;;;;;;;;;4903311;29;20052;-88
2023/12/11 02:40:52;;;;;;;74.50;9.80;;;;;;;;;;4886948;29;20052;-89
2023/12/11 02:43:26;;;;;;;92.55;11.63;;;;;;;;;;4901765;29;20291;-88
2023/12/11 02:45:52;;;;;;;74.60;10.27;;;;;;;;;;4906586;29;20379;-90
2023/12/11 02:48:19;;;;;;;80.65;12.38;;;;;;;;;;4897468;29;20522;-88
2023/12/11 02:50:48;;;;;;;82.32;10.95;;;;;;;;;;4888177;29;20048;-92
2023/12/11 02:53:17;;;;;;;78.78;11.98;;;;;;;;;;4898127;29;20079;-89
2023/12/11 02:55:48;;;;;;;71.18;9.73;;;;;;;;;;4903645;29;20052;-95
2023/12/11 02:58:30;;;;;;;72.53;8.98;;;;;;;;;;4907998;29;20055;-89
2023/12/11 03:00:56;;;;;;;81.25;9.52;;;;;;;;;;4933772;29;20507;-88
2023/12/11 03:03:25;;;;;;;80.05;9.55;;;;;;;;;;4916736;29;20466;-89
2023/12/11 03:05:55;;;;;;;72.20;10.25;;;;;;;;;;4903576;29;20043;-91
2023/12/11 03:08:23;;;;;;;80.65;11.15;;;;;;;;;;4898848;29;20043;-92
2023/12/11 03:11:01;;;;;;;76.82;9.43;;;;;;;;;;4901035;29;20086;-91
2023/12/11 03:13:27;;;;;;;80.07;11.27;;;;;;;;;;4903334;29;20051;-94
2023/12/11 03:15:56;;;;;;;84.15;10.40;;;;;;;;;;4892415;29;20120;-93
2023/12/11 03:18:22;;;;;;;83.57;11.13;;;;;;;;;;4887905;29;20048;-92
2023/12/11 03:20:48;;;;;;;89.97;9.57;;;;;;;;;;4901783;29;20371;-89
2023/12/11 03:23:23;;;;;;;82.40;10.52;;;;;;;;;;4933945;29;20086;-90
2023/12/11 03:25:49;;;;;;;88.05;9.48;;;;;;;;;;4899695;29;20055;-90
2023/12/11 03:31:39;;;;;;;74.15;9.95;;;;;;;;;;4940891;29;20501;-94
2023/12/11 03:34:14;;;;;;;86.28;11.43;;;;;;;;;;4923940;29;20047;-92
2023/12/11 03:36:50;;;;;;;90.30;10.15;;;;;;;;;;4926106;29;20051;-93
2023/12/11 03:39:22;;;;;;;98.32;12.73;;;;;;;;;;4921537;29;20099;-90
2023/12/11 03:41:54;;;;;;;;;;;;;;;;;;4891900;29;20055;-92
2023/12/11 03:44:23;;;;;;;77.45;8.25;;;;;;;;;;4897342;29;19948;-92
2023/12/11 03:46:52;;;;;;;;;;;;;;;;;;4892555;29;20055;-87
2023/12/11 03:49:22;;;;;;;84.40;10.02;;;;;;;;;;4885263;29;19927;-91
2023/12/11 03:51:51;;;;;;;;;;;;;;;;;;4889653;29;20075;-91
2023/12/11 03:54:32;;;;;;;81.03;10.95;;;;;;;;;;4906599;29;19977;-89
2023/12/11 03:56:58;;;;;;;65.93;9.57;;;;;;;;;;4902240;29;20047;-95
2023/12/11 03:59:34;;;;;;;86.47;12.25;;;;;;;;;;4891602;29;20052;-90
2023/12/11 04:02:06;;;;;;;83.38;12.45;;;;;;;;;;4907183;29;20054;-94
2023/12/11 04:04:32;;;;;;;75.15;11.88;;;;;;;;;;4897004;29;20059;-89
2023/12/11 04:06:59;;;;;;;99.05;13.23;;;;;;;;;;4889985;29;20055;-92
2023/12/11 04:09:27;;;;;;;74.53;9.15;;;;;;;;;;4889592;29;20957;-88
2023/12/11 04:11:53;;;;;;;99.80;11.85;;;;;;;;;;4907539;29;20743;-86
2023/12/11 04:14:19;;;;;;;74.35;9.82;;;;;;;;;;4883516;29;20874;-93
2023/12/11 04:16:50;;;;;;;77.07;11.45;;;;;;;;;;4890073;29;20056;-89
2023/12/11 04:19:20;;;;;;;84.30;10.68;;;;;;;;;;4896042;29;20766;-93
2023/12/11 04:21:46;;;;;;;81.80;11.35;;;;;;;;;;4903252;29;20052;-91
2023/12/11 04:24:12;;;;;;;72.05;10.45;;;;;;;;;;4891957;29;20465;-93
2023/12/11 04:26:45;;;;;;;64.78;10.35;;;;;;;;;;4904732;29;20039;-90
2023/12/11 04:29:16;;;;;;;74.60;10.43;;;;;;;;;;4895540;29;20047;-89
2023/12/11 04:31:45;;;;;;;85.40;11.65;;;;;;;;;;4902838;29;20486;-89
2023/12/11 04:34:24;;;;;;;87.18;10.63;;;;;;;;;;4890213;29;20135;-93
2023/12/11 04:36:58;;;;;;;87.60;11.10;;;;;;;;;;4890677;29;20047;-93
2023/12/11 04:39:24;;;;;;;77.05;12.60;;;;;;;;;;4908220;29;20051;-91
2023/12/11 04:41:50;;;;;;;67.05;10.63;;;;;;;;;;4913487;29;20108;-89
2023/12/11 04:44:21;;;;;;;70.03;10.93;;;;;;;;;;4898136;29;20052;-91
2023/12/11 04:46:47;;;;;;;68.75;9.65;;;;;;;;;;4884905;29;20044;-93
2023/12/11 04:49:27;;;;;;;58.83;8.00;;;;;;;;;;4885310;29;20059;-90
2023/12/11 04:51:56;;;;;;;75.35;9.13;;;;;;;;;;4884144;29;20091;-87
2023/12/11 04:54:24;;;;;;;64.35;9.57;;;;;;;;;;4889799;29;20094;-89
2023/12/11 04:56:53;;;;;;;80.60;12.73;;;;;;;;;;4900769;29;20047;-92
2023/12/11 04:59:19;;;;;;;59.10;8.18;;;;;;;;;;4890829;29;20084;-88
2023/12/11 05:01:46;;;;;;;72.35;10.70;;;;;;;;;;4890487;29;20062;-90
2023/12/11 05:04:17;;;;;;;64.55;7.95;;;;;;;;;;4885222;29;20052;-91
2023/12/11 05:06:52;;;;;;;65.20;7.40;;;;;;;;;;4900785;29;20055;-91
2023/12/11 05:09:18;;;;;;;56.72;7.75;;;;;;;;;;4890688;29;20120;-89
2023/12/11 05:12:04;;;;;;;78.28;12.43;;;;;;;;;;4903262;29;20044;-92
2023/12/11 05:14:32;;;;;;;73.13;9.20;;;;;;;;;;4918908;29;20048;-93
2023/12/11 05:16:59;;;;;;;82.55;8.82;;;;;;;;;;4908276;29;20044;-93
2023/12/11 05:19:28;;;;;;;78.60;9.18;;;;;;;;;;4890728;29;20079;-92
2023/12/11 05:22:02;;;;;;;75.90;9.35;;;;;;;;;;4894425;29;20056;-92
2023/12/11 05:24:29;;;;;;;59.28;7.38;;;;;;;;;;4888352;29;20048;-91
2023/12/11 05:27:03;;;;;;;66.05;7.75;;;;;;;;;;4901984;29;20047;-91
2023/12/11 05:29:29;;;;;;;82.88;8.30;;;;;;;;;;4910211;29;20518;-93
2023/12/11 05:32:10;;;;;;;58.88;8.32;;;;;;;;;;4899361;29;20561;-89
2023/12/11 05:34:36;;;;;;;64.45;8.10;;;;;;;;;;4888267;29;20160;-89
2023/12/11 05:37:02;;;;;;;62.85;9.00;;;;;;;;;;4894246;29;20059;-88
2023/12/11 05:39:42;;;;;;;62.90;6.38;;;;;;;;;;4906962;29;20048;-89
2023/12/11 05:42:17;;;;;;;71.63;8.38;;;;;;;;;;4889256;29;20536;-90
2023/12/11 05:44:43;;;;;;;57.47;8.82;;;;;;;;;;4901865;29;20138;-94
2023/12/11 05:47:09;;;;;;;74.85;7.38;;;;;;;;;;4899910;29;20058;-91
2023/12/11 05:49:42;;;;;;;60.90;6.15;;;;;;;;;;4888709;29;20063;-91
2023/12/11 05:52:14;;;;;;;64.28;7.85;;;;;;;;;;4897499;29;20060;-95
2023/12/11 05:54:55;;;;;;;65.13;8.90;;;;;;;;;;4883105;29;20095;-93
2023/12/11 05:57:21;;;;;;;61.42;6.55;;;;;;;;;;4900183;29;20040;-89
2023/12/11 05:59:56;;;;;;;61.80;7.50;;;;;;;;;;4892172;29;20109;-90
2023/12/11 06:02:40;;;;;;;67.82;11.18;;;;;;;;;;4889215;29;20051;-90
2023/12/11 06:05:13;;;;;;;59.05;7.25;;;;;;;;;;4885087;29;20052;-89
2023/12/11 06:07:40;;;;;;;61.50;7.35;;;;;;;;;;4886631;29;20052;-93
2023/12/11 06:10:15;;;;;;;47.33;6.10;;;;;;;;;;4903726;29;20060;-92
2023/12/11 06:12:41;;;;;;;66.07;7.15;;;;;;;;;;4886990;29;20044;-88
2023/12/11 06:15:08;;;;;;;62.53;7.93;;;;;;;;;;4883724;29;20080;-94
2023/12/11 06:17:44;;;;;;;57.63;6.95;;;;;;;;;;4884666;29;20055;-92
2023/12/11 06:20:11;;;;;;;61.00;6.93;;;;;;;;;;4892334;29;20138;-94
2023/12/11 06:22:37;;;;;;;65.50;7.80;;;;;;;;;;4895493;29;20506;-89
2023/12/11 06:25:03;;;;;;;52.42;5.38;;;;;;;;;;4884706;29;20050;-94
2023/12/11 06:27:29;;;;;;;53.30;5.88;;;;;;;;;;4894304;29;20513;-90
2023/12/11 06:29:55;;;;;;;57.55;7.13;;;;;;;;;;4886225;29;20055;-91
2023/12/11 06:32:37;;;;;;;55.65;4.97;;;;;;;;;;4901081;29;20044;-91
2023/12/11 06:35:22;;;;;;;50.60;5.55;;;;;;;;;;4895923;29;20055;-91
2023/12/11 06:37:53;;;;;;;48.85;6.15;;;;;;;;;;4901246;29;20047;-87
2023/12/11 06:40:22;;;;;;;56.43;5.77;;;;;;;;;;4904581;29;20503;-93
2023/12/11 06:42:56;;;;;;;52.53;6.95;;;;;;;;;;4898216;29;20055;-90
2023/12/11 06:45:24;;;;;;;56.88;5.93;;;;;;;;;;4925657;29;20081;-93
2023/12/11 06:47:53;;;;;;;49.63;8.48;;;;;;;;;;4889532;29;20055;-94
2023/12/11 06:50:22;;;;;;;47.95;7.30;;;;;;;;;;4898884;29;20047;-89
2023/12/11 06:52:54;;;;;;;55.60;7.97;;;;;;;;;;4900274;29;20087;-92
2023/12/11 06:55:20;;;;;;;64.60;7.78;;;;;;;;;;4890506;29;20442;-92
2023/12/11 06:57:55;;;;;;;56.05;8.90;;;;;;;;;;4888105;29;20044;-93
2023/12/11 07:00:22;;;;;;;59.97;6.72;;;;;;;;;;4887842;29;20048;-91
2023/12/11 07:02:57;;;;;;;59.50;7.68;;;;;;;;;;4887466;29;20068;-93
2023/12/11 07:05:33;;;;;;;50.42;6.28;;;;;;;;;;4898212;29;20052;-91
2023/12/11 07:08:02;;;;;;;63.80;7.30;;;;;;;;;;4888183;29;20059;-92
2023/12/11 07:10:30;;;;;;;63.60;6.75;;;;;;;;;;4904540;29;20048;-93
2023/12/11 07:12:59;;;;;;;52.13;6.30;;;;;;;;;;4907577;29;20509;-94
2023/12/11 07:15:25;;;;;;;50.03;7.18;;;;;;;;;;4904128;29;20421;-92
2023/12/11 07:17:56;;;;;;;64.53;8.35;;;;;;;;;;4898940;29;20520;-92
2023/12/11 07:20:25;;;;;;;60.63;7.05;;;;;;;;;;4877776;29;20173;-88
2023/12/11 07:22:57;;;;;;;53.08;8.48;;;;;;;;;;4878782;29;20059;-93
2023/12/11 07:25:23;;;;;;;65.45;8.23;;;;;;;;;;4872257;29;20048;-91
2023/12/11 07:27:52;;;;;;;66.03;8.68;;;;;;;;;;4890913;29;20053;-90
2023/12/11 07:30:23;;;;;;;67.70;9.05;;;;;;;;;;4866916;29;20110;-94
2023/12/11 07:32:52;;;;;;;66.97;9.35;;;;;;;;;;4857085;29;20110;-92
2023/12/11 07:35:18;;;;;;;56.47;8.07;;;;;;;;;;4850360;29;20049;-87
2023/12/11 07:37:46;;;;;;;67.68;8.93;;;;;;;;;;4855652;29;20056;-89
2023/12/11 07:40:12;;;;;;;76.30;10.85;;;;;;;;;;4844836;29;20128;-89
2023/12/11 07:42:41;;;;;;;61.28;7.60;;;;;;;;;;4852864;29;20139;-89
2023/12/11 07:45:07;;;;;;;59.03;9.57;;;;;;;;;;4851642;29;20052;-89
2023/12/11 07:47:33;;;;;;;63.22;8.45;;;;;;;;;;4856806;29;20057;-89
2023/12/11 07:50:00;;;;;;;67.65;8.10;;;;;;;;;;4853132;29;20099;-88
2023/12/11 07:52:35;;;;;;;51.60;9.25;;;;;;;;;;4909614;29;20569;-90
2023/12/11 07:55:01;;;;;;;57.05;7.18;;;;;;;;;;4904706;29;20509;-88
2023/12/11 07:57:28;;;;;;;60.03;8.52;;;;;;;;;;4886104;29;20873;-90
2023/12/11 07:59:55;;;;;;;53.22;8.73;;;;;;;;;;4889571;29;20479;-88
2023/12/11 08:02:22;;;;;;;67.50;8.38;;;;;;;;;;4881142;29;20056;-88
2023/12/11 08:04:48;;;;;;;56.53;7.85;;;;;;;;;;4885873;29;20059;-86
2023/12/11 08:07:14;;;;;;;68.30;8.93;;;;;;;;;;4889035;29;20088;-88
2023/12/11 08:09:41;;;;;;;54.65;8.02;;;;;;;;;;4883361;29;20079;-87
2023/12/11 08:12:07;;;;;;;63.25;11.05;;;;;;;;;;4889725;29;20056;-89
2023/12/11 08:14:33;;;;;;;55.38;8.07;;;;;;;;;;4878830;29;20047;-90
2023/12/11 08:16:59;;;;;;;64.50;8.48;;;;;;;;;;4884902;29;20081;-91
2023/12/11 08:19:26;;;;;;;51.75;8.25;;;;;;;;;;4885301;29;20048;-92
2023/12/11 08:21:55;;;;;;;50.50;7.85;;;;;;;;;;4892543;29;20135;-88
2023/12/11 08:24:22;;;;;;;51.25;7.15;;;;;;;;;;4887105;29;20047;-91
2023/12/11 08:26:48;;;;;;;41.72;7.43;;;;;;;;;;4888281;29;20051;-87
2023/12/11 08:29:14;;;;;;;40.20;6.47;;;;;;;;;;4902803;29;20521;-88
2023/12/11 08:31:40;;;;;;;49.40;8.07;;;;;;;;;;4894222;29;20043;-87
2023/12/11 08:34:06;;;;;;;40.63;6.57;;;;;;;;;;4901656;29;20501;-91
2023/12/11 08:36:33;;;;;;;39.10;7.00;;;;;;;;;;4902061;29;20043;-87
2023/12/11 08:38:59;;;;;;;39.00;6.55;;;;;;;;;;4884811;29;20135;-89
2023/12/11 08:41:25;;;;;;;47.65;8.45;;;;;;;;;;4886811;29;20044;-91
2023/12/11 08:43:51;;;;;;;36.58;8.23;;;;;;;;;;4883838;29;20074;-89
2023/12/11 08:46:17;;;;;;;35.65;7.35;;;;;;;;;;4902984;29;20043;-90
2023/12/11 08:48:46;;;;;;;34.22;6.47;;;;;;;;;;4908739;29;20075;-90
2023/12/11 08:51:12;;;;;;;29.63;6.72;;;;;;;;;;4913741;29;20051;-90
2023/12/11 08:53:45;;;;;;;35.90;7.03;;;;;;;;;;4889907;29;20051;-87
2023/12/11 08:56:11;;;;;;;33.15;6.55;;;;;;;;;;4895391;29;20084;-88
2023/12/11 08:58:38;;;;;;;23.33;6.53;;;;;;;;;;4891905;29;20058;-87
2023/12/11 09:01:05;;;;;;;41.63;9.50;;;;;;;;;;4890006;29;20074;-88
2023/12/11 09:03:31;;;;;;;31.45;7.68;;;;;;;;;;4898943;29;20056;-88
2023/12/11 09:05:57;;;;;;;36.05;8.30;;;;;;;;;;4902851;29;20729;-87
2023/12/11 09:08:23;;;;;;;31.55;6.70;;;;;;;;;;4882416;29;20087;-88
2023/12/11 09:10:50;;;;;;;26.92;7.53;;;;;;;;;;4898342;29;20044;-87
2023/12/11 09:13:16;;;;;;;39.05;8.05;;;;;;;;;;4897685;29;20660;-90
2023/12/11 09:15:42;;;;;;;31.25;8.02;;;;;;;;;;4898202;29;20052;-92
2023/12/11 09:18:08;;;;;;;35.10;8.32;;;;;;;;;;4881275;29;20485;-86
2023/12/11 09:20:35;;;;;;;35.38;7.35;;;;;;;;;;4887084;29;20927;-88
2023/12/11 09:23:01;;;;;;;35.40;7.00;;;;;;;;;;4885660;29;20111;-87
2023/12/11 09:25:27;;;;;;;28.38;6.78;;;;;;;;;;4893235;29;20161;-88
2023/12/11 09:27:56;;;;;;;27.63;6.22;;;;;;;;;;4907847;29;20111;-90
2023/12/11 09:30:29;;;;;;;42.97;7.90;;;;;;;;;;4933362;29;20084;-87
2023/12/11 09:32:55;;;;;;;39.22;8.18;;;;;;;;;;4896583;29;20048;-88
2023/12/11 09:35:22;;;;;;;37.30;6.43;;;;;;;;;;4888586;29;20128;-87
2023/12/11 09:38:12;;;;;;;29.52;7.25;;;;;;;;;;4905197;29;20131;-89
2023/12/11 09:40:38;;;;;;;38.40;6.75;;;;;;;;;;4847283;29;1231551;-89
2023/12/11 09:43:08;;;;;;;30.45;5.38;;;;;;;;;;4870718;29;20138;-91
2023/12/11 09:45:34;;;;;;;36.75;6.65;;;;;;;;;;4883138;29;20044;-92
2023/12/11 09:48:00;;;;;;;31.20;5.72;;;;;;;;;;4891477;29;20516;-88
2023/12/11 09:50:27;;;;;;;29.55;6.60;;;;;;;;;;4899404;29;20040;-88
2023/12/11 09:52:55;;;;;;;21.63;4.82;;;;;;;;;;4898545;29;20523;-90
2023/12/11 09:55:22;;;;;;;20.92;4.47;;;;;;;;;;4890126;29;20052;-91
2023/12/11 09:58:15;;;;;;;27.55;4.75;;;;;;;;;;4911245;29;20660;-91
2023/12/11 10:00:42;;;;;;;25.50;4.95;;;;;;;;;;4891178;29;20151;-88
2023/12/11 10:03:08;;;;;;;36.38;4.88;;;;;;;;;;4890150;29;20611;-91
2023/12/11 10:05:38;;;;;;;32.05;4.68;;;;;;;;;;4887468;29;20454;-90
2023/12/11 10:08:07;;;;;;;21.92;4.40;;;;;;;;;;4887358;29;20044;-91
2023/12/11 10:10:38;;;;;;;26.67;4.30;;;;;;;;;;4905355;29;20386;-93
2023/12/11 10:13:08;;;;;;;33.70;5.18;;;;;;;;;;4889455;29;20040;-95
2023/12/11 10:15:35;;;;;;;34.28;5.15;;;;;;;;;;4905895;29;20040;-88
2023/12/11 10:18:12;;;;;;;37.30;7.47;;;;;;;;;;4904878;29;20051;-89
2023/12/11 10:20:40;;;;;;;28.40;5.07;;;;;;;;;;4903278;29;20125;-91
2023/12/11 10:23:18;;;;;;;28.10;5.03;;;;;;;;;;4904165;29;20043;-93
2023/12/11 10:25:51;;;;;;;34.70;5.35;;;;;;;;;;4906288;29;20047;-90
2023/12/11 10:28:18;;;;;;;26.45;4.65;;;;;;;;;;4891309;29;20059;-93
2023/12/11 10:30:53;;;;;;;25.20;3.70;;;;;;;;;;4891118;29;20052;-88
2023/12/11 10:33:24;;;;;;;30.67;4.90;;;;;;;;;;4904266;29;20055;-91
2023/12/11 10:35:57;;;;;;;28.52;5.65;;;;;;;;;;4890318;29;20059;-91
2023/12/11 10:38:26;;;;;;;26.65;4.82;;;;;;;;;;4884385;29;20047;-93
2023/12/11 10:41:02;;;;;;;31.83;4.90;;;;;;;;;;4882982;29;20048;-92
2023/12/11 10:43:41;;;;;;;32.70;5.18;;;;;;;;;;4900489;29;20502;-91
2023/12/11 10:46:10;;;;;;;34.13;4.85;;;;;;;;;;4897636;29;20063;-93
2023/12/11 10:48:40;;;;;;;30.20;3.85;;;;;;;;;;4903912;29;20150;-92
2023/12/11 10:51:27;;;;;;;19.67;2.85;;;;;;;;;;4901799;29;20088;-91
2023/12/11 10:54:00;;;;;;;29.95;2.90;;;;;;;;;;4900866;29;20051;-90
2023/12/11 10:56:26;;;;;;;21.52;3.05;;;;;;;;;;4902691;29;20146;-89
2023/12/11 10:58:52;;;;;;;16.33;3.03;;;;;;;;;;4906316;29;20044;-89
2023/12/11 11:01:26;;;;;;;38.10;4.57;;;;;;;;;;4889154;29;20316;-91
2023/12/11 11:04:22;;;;;;;30.65;3.92;;;;;;;;;;4894775;29;20079;-91
2023/12/11 11:06:48;;;;;;;50.65;6.60;;;;;;;;;;4900890;29;20048;-89
2023/12/11 11:09:20;;;;;;;28.42;2.55;;;;;;;;;;4885481;29;20048;-88
2023/12/11 11:11:52;;;;;;;25.55;3.08;;;;;;;;;;4884963;29;20048;-87
2023/12/11 11:14:20;;;;;;;28.33;3.63;;;;;;;;;;4901184;29;20048;-92
2023/12/11 11:17:01;;;;;;;28.38;3.92;;;;;;;;;;4892023;29;20079;-91
2023/12/11 11:19:31;;;;;;;37.25;4.00;;;;;;;;;;4894437;29;20086;-92
2023/12/11 11:22:29;;;;;;;32.58;3.47;;;9.10;99.90;;;;;;4920246;29;20063;-88
2023/12/11 11:25:53;;;;;;;27.65;2.55;;;9.10;99.90;;;;;;4908510;29;20146;-90
2023/12/11 11:28:40;;;;;;;28.05;3.63;;;;;;;;;;4844093;29;20049;-89
2023/12/11 11:31:12;;;;;;;28.65;3.20;;;;;;;;;;4879753;29;20502;-88
2023/12/11 11:33:49;;;;;;;23.73;1.77;;;;;;;;;;4896081;29;20051;-92
2023/12/11 11:36:17;;;;;;;26.05;3.00;;;;;;;;;;4901872;29;20904;-91
2023/12/11 11:38:56;;;;;;;26.42;3.03;;;;;;;;;;4889417;29;20067;-88
2023/12/11 11:41:36;;;;;;;28.33;3.67;;;;;;;;;;4894881;29;20050;-90
2023/12/11 11:44:17;;;;;;;26.08;2.30;;;;;;;;;;4898139;29;20493;-94
2023/12/11 11:46:50;;;;;;;24.70;2.13;;;;;;;;;;4890501;29;20532;-90
2023/12/11 11:49:43;;;;;;;32.47;3.75;;;;;;;;;;4900362;29;20043;-89
2023/12/11 11:52:12;;;;;;;29.40;3.72;;;;;;;;;;4890869;29;20055;-90
2023/12/11 11:54:39;;;;;;;27.10;2.28;;;;;;;;;;4902318;29;20053;-88
2023/12/11 11:57:08;;;;;;;20.30;2.40;;;;;;;;;;4903663;29;20107;-90
2023/12/11 11:59:44;;;;;;;21.90;2.28;;;;;;;;;;4899416;29;20141;-92
2023/12/11 12:02:12;;;;;;;17.05;1.60;;;;;;;;;;4892505;29;20517;-89
2023/12/11 12:05:12;;;;;;;24.95;2.60;;;;;;;;;;4894790;29;20056;-90
2023/12/11 12:08:00;;;;;;;22.58;1.40;;;;;;;;;;4907183;29;20052;-90
2023/12/11 12:10:29;;;;;;;18.13;1.27;;;;;;;;;;4888856;29;20098;-89
2023/12/11 12:13:03;;;;;;;18.25;1.70;;;;;;;;;;4909527;29;20047;-90
2023/12/11 12:15:51;;;;;;;15.88;1.48;;;8.50;99.90;;;;;;4901168;29;20039;-89
2023/12/11 12:18:20;;;;;;;24.27;1.73;;;;;;;;;;4885351;29;20084;-91
2023/12/11 12:21:09;;;;;;;18.83;1.58;;;;;;;;;;4890638;29;20052;-90
2023/12/11 12:23:38;;;;;;;22.60;3.22;;;;;;;;;;4900299;29;20054;-89
2023/12/11 12:26:07;;;;;;;;;;;8.50;99.90;;;;;;4893538;29;20055;-89
2023/12/11 12:28:52;;;;;;;29.50;4.82;;;;;;;;;;4885486;29;19923;-92
2023/12/11 12:31:18;;;;;;;29.95;3.78;;;;;;;;;;4911966;29;20047;-89
2023/12/11 12:33:44;;;;;;;29.02;3.10;;;;;;;;;;4894204;29;20059;-89
2023/12/11 12:36:16;;;;;;;30.45;4.07;;;;;;;;;;4911102;29;20044;-94
2023/12/11 12:38:43;;;;;;;30.73;4.85;;;;;;;;;;4902430;29;20055;-91
2023/12/11 12:41:17;;;;;;;44.00;6.55;;;;;;;;;;4891520;29;20112;-90
2023/12/11 12:44:17;;;;;;;34.20;5.35;;;;;;;;;;4891981;29;20058;-94
2023/12/11 12:46:50;;;;;;;30.02;5.30;;;;;;;;;;4905192;29;20052;-90
2023/12/11 12:49:24;;;;;;;29.67;3.42;;;;;;;;;;4900350;29;20056;-89
2023/12/11 12:51:54;;;;;;;21.25;3.42;;;;;;;;;;4897855;29;20040;-92
2023/12/11 12:54:49;;;;;;;36.50;4.78;;;;;;;;;;4884516;29;20513;-91
2023/12/11 12:57:19;;;;;;;29.63;3.67;;;;;;;;;;4897045;29;20852;-90
2023/12/11 12:59:54;;;;;;;23.17;2.67;;;;;;;;;;4900509;29;20047;-91
2023/12/11 13:02:37;;;;;;;17.20;1.88;;;;;;;;;;4894799;29;20059;-91
2023/12/11 13:05:18;;;;;;;40.50;3.97;;;;;;;;;;4887738;29;20179;-88
2023/12/11 13:08:02;;;;;;;22.70;2.55;;;;;;;;;;4889550;29;20060;-89
2023/12/11 13:10:28;;;;;;;28.35;3.22;;;;;;;;;;4866853;29;20049;-86
2023/12/11 13:12:54;;;;;;;16.52;1.85;;;;;;;;;;4844964;29;20061;-93
2023/12/11 13:15:29;;;;;;;24.08;3.05;;;;;;;;;;4856892;29;20049;-90
2023/12/11 13:18:02;;;;;;;28.80;4.45;;;;;;;;;;4862087;29;20051;-93
2023/12/11 13:20:29;;;;;;;23.77;2.00;;;;;;;;;;4872357;29;20549;-92
2023/12/11 13:22:57;;;;;;;17.23;1.85;;;;;;;;;;4877908;29;20048;-91
2023/12/11 13:25:24;;;;;;;22.95;2.33;;;;;;;;;;4872394;29;20535;-92
2023/12/11 13:28:08;;;;;;;20.30;3.03;;;;;;;;;;4869745;29;20531;-92
2023/12/11 13:30:39;;;;;;;16.30;1.60;;;;;;;;;;4884092;29;20145;-94
2023/12/11 13:33:11;;;;;;;12.40;0.77;;;;;;;;;;4883794;29;20045;-93
2023/12/11 13:35:37;;;;;;;28.17;3.13;;;;;;;;;;4896435;29;20517;-90
2023/12/11 13:38:04;;;;;;;17.50;1.80;;;;;;;;;;4889180;29;20048;-88
2023/12/11 13:40:30;;;;;;;16.48;1.88;;;;;;;;;;4903426;29;20044;-91
2023/12/11 13:43:02;;;;;;;19.55;1.08;;;;;;;;;;4919787;29;20062;-93
2023/12/11 13:45:33;;;;;;;13.00;0.90;;;;;;;;;;4926605;29;20042;-89
2023/12/11 13:48:01;;;;;;;13.60;0.90;;;;;;;;;;4933739;29;20040;-88
2023/12/11 13:50:34;;;;;;;10.18;0.80;;;;;;;;;;4922111;29;20125;-89
2023/12/11 13:52:59;;;;;;;;;;;7.70;99.90;;;;;;4911367;29;20132;-90
2023/12/11 13:55:26;;;;;;;10.52;0.57;;;;;;;;;;4907854;29;20009;-90
2023/12/11 13:57:52;;;;;;;9.27;0.73;;;;;;;;;;4901814;29;20048;-91
2023/12/11 14:00:18;;;;;;;14.85;1.10;;;;;;;;;;4911222;29;20536;-89
2023/12/11 14:03:07;;;;;;;10.27;0.80;;;;;;;;;;4895179;29;20052;-92
2023/12/11 14:05:34;;;;;;;17.58;1.70;;;;;;;;;;4885545;29;20098;-92
2023/12/11 14:08:06;;;;;;;11.27;1.08;;;;;;;;;;4905225;29;20044;-92
2023/12/11 14:10:36;;;;;;;10.98;0.60;;;;;;;;;;4894230;29;20039;-90
2023/12/11 14:13:12;;;;;;;14.30;2.05;;;;;;;;;;4903198;29;20044;-88
2023/12/11 14:15:46;;;;;;;11.95;0.40;;;;;;;;;;4915590;29;20084;-90
2023/12/11 14:18:15;;;;;;;27.77;2.10;;;;;;;;;;4894659;29;20567;-89
2023/12/11 14:20:57;;;;;;;14.10;2.05;;;;;;;;;;4888795;29;20454;-91
2023/12/11 14:23:24;;;;;;;15.27;0.75;;;;;;;;;;4887896;29;20392;-91
2023/12/11 14:25:59;;;;;;;9.20;0.40;;;;;;;;;;4888680;29;20374;-91
2023/12/11 14:28:26;;;;;;;8.57;0.80;;;;;;;;;;4902955;29;20060;-90
2023/12/11 14:30:53;;;;;;;10.18;0.40;;;;;;;;;;4897547;29;20071;-90
2023/12/11 14:33:19;;;;;;;12.60;1.38;;;;;;;;;;4928276;29;20072;-91
2023/12/11 14:38:44;;;;;;;13.18;2.13;;;;;;;;;;4903830;29;20044;-91
2023/12/11 14:41:13;;;;;;;15.00;1.95;;;;;;;;;;4893780;29;20092;-89
2023/12/11 14:43:57;;;;;;;10.27;1.13;;;;;;;;;;4901975;29;20062;-92
2023/12/11 14:46:23;;;;;;;11.18;0.50;;;;;;;;;;4890093;29;20139;-90
2023/12/11 14:48:58;;;;;;;5.75;0.45;;;;;;;;;;4902779;29;20048;-89
2023/12/11 14:51:24;;;;;;;9.02;0.40;;;;;;;;;;4887336;29;20075;-89
2023/12/11 14:53:56;;;;;;;6.20;0.50;;;;;;;;;;4899069;29;20055;-89
2023/12/11 14:56:40;;;;;;;9.50;1.05;;;;;;;;;;4913359;29;20052;-92
2023/12/11 14:59:17;;;;;;;16.58;0.90;;;;;;;;;;4890348;29;20135;-93